Time;durP1;ratioP1;P1;durP2;ratioP2;P2;SDS_P1;SDS_P2;PMS_P1;PMS_P2;Temp;Humidity;BMP_temperature;BMP_pressure;BME280_temperature;BME280_humidity;BME280_pressure;Samples;Min_cycle;Max_cycle;Signal;HPM_P1;HPM_P2
2023/03/11 00:00:08;;;;;;;;;12.00;11.33;;;;;9.53;100.00;100653.66;4999745;28;46925;-77
2023/03/11 00:02:33;;;;;;;;;20.33;13.00;;;;;9.51;100.00;100662.94;4979813;28;45813;-77
2023/03/11 00:04:58;;;;;;;;;15.67;12.67;;;;;9.34;100.00;100640.97;4984034;28;45530;-77
2023/03/11 00:07:23;;;;;;;;;10.00;10.00;;;;;9.24;100.00;100640.13;4985878;28;45597;-77
2023/03/11 00:09:49;;;;;;;;;13.00;13.00;;;;;9.42;100.00;100663.81;4997415;28;46845;-77
2023/03/11 00:12:14;;;;;;;;;12.00;10.33;;;;;9.41;100.00;100659.38;4983754;28;45399;-77
2023/03/11 00:14:39;;;;;;;;;15.00;15.00;;;;;9.49;100.00;100671.22;4985797;28;45412;-77
2023/03/11 00:17:05;;;;;;;;;25.00;19.25;;;;;9.47;100.00;100659.66;4985039;28;45429;-77
2023/03/11 00:19:30;;;;;;;;;17.00;17.00;;;;;9.55;100.00;100686.06;4985364;28;45467;-77
2023/03/11 00:21:56;;;;;;;;;19.00;19.00;;;;;9.46;100.00;100676.06;4983553;28;45308;-76
2023/03/11 00:24:22;;;;;;;;;21.67;18.33;;;;;9.56;100.00;100674.22;4985383;28;45263;-77
2023/03/11 00:26:47;;;;;;;;;18.67;15.00;;;;;9.57;100.00;100667.81;4983679;28;45423;-77
2023/03/11 00:29:12;;;;;;;;;14.00;13.67;;;;;9.45;100.00;100637.25;4985076;28;52853;-77
2023/03/11 00:31:38;;;;;;;;;15.00;15.00;;;;;9.57;100.00;100648.81;4984667;28;45162;-77
2023/03/11 00:34:03;;;;;;;;;16.00;16.00;;;;;9.52;100.00;100626.69;5000559;28;45189;-77
2023/03/11 00:36:30;;;;;;;;;16.33;13.33;;;;;9.62;100.00;100631.09;4985078;28;45515;-77
2023/03/11 00:38:57;;;;;;;;;14.75;13.00;;;;;9.65;100.00;100652.50;4985201;28;45356;-77
2023/03/11 00:41:22;;;;;;;;;15.25;13.75;;;;;9.70;100.00;100660.22;4995451;28;45427;-77
2023/03/11 00:43:47;;;;;;;;;16.67;14.67;;;;;9.63;100.00;100659.09;4984346;28;45419;-77
2023/03/11 00:46:13;;;;;;;;;16.00;14.33;;;;;9.63;100.00;100678.06;5016468;28;45429;-77
2023/03/11 00:48:38;;;;;;;;;22.00;13.00;;;;;9.58;100.00;100673.06;4984767;28;45484;-77
2023/03/11 00:51:06;;;;;;;;;15.67;12.33;;;;;9.59;100.00;100666.63;4984237;28;45355;-77
2023/03/11 00:53:31;;;;;;;;;17.00;16.25;;;;;9.65;100.00;100635.34;4985145;28;45345;-77
2023/03/11 00:55:57;;;;;;;;;20.50;15.25;;;;;9.62;100.00;100622.09;4961795;28;45372;-77
2023/03/11 00:58:26;;;;;;;;;11.00;11.00;;;;;9.69;100.00;100632.22;4984732;28;46445;-77
2023/03/11 01:00:51;;;;;;;;;15.25;13.00;;;;;9.59;100.00;100639.50;4984279;28;45405;-77
2023/03/11 01:03:17;;;;;;;;;17.25;15.25;;;;;9.63;100.00;100657.22;4999902;28;45485;-77
2023/03/11 01:05:42;;;;;;;;;19.00;19.00;;;;;9.60;100.00;100665.66;4982109;28;45577;-77
2023/03/11 01:08:07;;;;;;;;;25.50;23.00;;;;;9.48;100.00;100657.81;4984766;28;45310;-77
2023/03/11 01:10:34;;;;;;;;;26.25;25.25;;;;;9.56;100.00;100649.81;4984390;28;45229;-77
2023/03/11 01:13:00;;;;;;;;;32.00;26.50;;;;;9.63;100.00;100675.34;4984984;28;45382;-77
2023/03/11 01:15:31;;;;;;;;;28.75;27.25;;;;;9.71;100.00;100672.78;4984638;28;45634;-77
2023/03/11 01:17:57;;;;;;;;;28.50;23.50;;;;;9.69;100.00;100669.34;5015832;28;47963;-77
2023/03/11 01:20:22;;;;;;;;;37.25;31.00;;;;;9.68;100.00;100659.50;4983920;28;45411;-77
2023/03/11 01:22:48;;;;;;;;;39.25;35.00;;;;;9.69;100.00;100643.09;5016792;28;45474;-77
2023/03/11 01:25:15;;;;;;;;;38.75;34.75;;;;;9.70;100.00;100646.66;4984578;28;45613;-77
2023/03/11 01:27:40;;;;;;;;;48.00;38.00;;;;;9.60;100.00;100668.34;4984441;28;46271;-77
2023/03/11 01:30:06;;;;;;;;;48.75;41.75;;;;;9.56;100.00;100645.25;4983587;28;45436;-77
2023/03/11 01:32:32;;;;;;;;;52.25;39.25;;;;;9.57;100.00;100654.25;4984556;28;45308;-77
2023/03/11 01:34:57;;;;;;;;;37.25;33.50;;;;;9.57;100.00;100659.66;4984440;28;45420;-76
2023/03/11 01:37:22;;;;;;;;;27.00;25.50;;;;;9.56;100.00;100656.09;4982928;28;46560;-77
2023/03/11 01:39:48;;;;;;;;;27.50;22.25;;;;;9.60;100.00;100653.94;4995643;28;45316;-77
2023/03/11 01:42:13;;;;;;;;;22.50;19.00;;;;;9.57;100.00;100660.50;4984167;28;45400;-77
2023/03/11 01:44:38;;;;;;;;;18.00;17.50;;;;;9.60;100.00;100662.06;5000010;28;45634;-77
2023/03/11 01:47:04;;;;;;;;;18.00;17.00;;;;;9.57;100.00;100670.50;4983318;28;45308;-77
2023/03/11 01:49:29;;;;;;;;;16.00;13.75;;;;;9.48;100.00;100657.81;4983393;28;45436;-77
2023/03/11 01:51:59;;;;;;;;;18.25;16.00;;;;;9.43;100.00;100660.94;5015966;28;45239;-77
2023/03/11 01:54:27;;;;;;;;;15.00;11.00;;;;;9.46;100.00;100662.50;4984908;28;45360;-77
2023/03/11 01:56:54;;;;;;;;;12.00;10.33;;;;;9.45;100.00;100663.50;4982320;28;48077;-77
2023/03/11 01:59:23;;;;;;;;;13.67;11.67;;;;;9.39;100.00;100667.66;4984169;28;45279;-77
2023/03/11 02:02:03;;;;;;;;;14.25;12.00;;;;;9.44;100.00;100680.78;4988468;28;45459;-77
2023/03/11 02:04:29;;;;;;;;;11.00;8.00;;;;;9.40;100.00;100676.66;4983343;28;45631;-77
2023/03/11 02:06:55;;;;;;;;;11.67;10.67;;;;;9.48;100.00;100679.50;4983153;28;46264;-77
2023/03/11 02:09:22;;;;;;;;;9.00;8.00;;;;;9.53;100.00;100679.91;4983632;28;45268;-77
2023/03/11 02:11:49;;;;;;;;;7.00;7.00;;;;;9.47;100.00;100672.38;4983492;28;45462;-77
2023/03/11 02:14:15;;;;;;;;;9.67;8.33;;;;;9.52;100.00;100680.91;4997409;28;45335;-77
2023/03/11 02:16:40;;;;;;;;;13.00;10.67;;;;;9.48;100.00;100691.22;4980103;28;47565;-77
2023/03/11 02:19:50;;;;;;;;;9.00;8.00;;;;;9.50;100.00;100691.91;4978912;28;45974;-77
2023/03/11 02:22:15;;;;;;;;;7.67;7.33;;;;;9.49;100.00;100692.06;4979763;28;45186;-77
2023/03/11 02:24:56;;;;;;;;;6.67;6.33;;;;;9.46;100.00;100678.78;4983463;28;45323;-77
2023/03/11 02:27:24;;;;;;;;;5.33;5.33;;;;;9.48;100.00;100676.78;4982478;28;46667;-77
2023/03/11 02:29:50;;;;;;;;;10.33;8.00;;;;;9.40;100.00;100665.81;4993694;28;45414;-77
2023/03/11 02:32:17;;;;;;;;;10.00;9.33;;;;;9.48;100.00;100674.94;4982927;28;45336;-77
2023/03/11 02:34:42;;;;;;;;;9.00;9.00;;;;;9.41;100.00;100675.66;4999037;28;45394;-77
2023/03/11 02:37:10;;;;;;;;;11.00;11.00;;;;;9.47;100.00;100694.91;4982276;28;46649;-77
2023/03/11 02:39:39;;;;;;;;;10.00;10.00;;;;;9.41;100.00;100690.06;4998593;28;45391;-77
2023/03/11 02:42:15;;;;;;;;;12.00;8.00;;;;;9.43;100.00;100674.50;4982526;28;45275;-77
2023/03/11 02:44:45;;;;;;;;;10.33;10.33;;;;;9.42;100.00;100661.97;4984070;28;45530;-77
2023/03/11 02:47:11;;;;;;;;;10.75;8.50;;;;;9.33;100.00;100647.41;4981893;28;46017;-77
2023/03/11 02:49:37;;;;;;;;;12.00;10.33;;;;;9.25;100.00;100641.81;4983112;28;45555;-77
2023/03/11 02:52:03;;;;;;;;;7.75;7.00;;;;;9.19;100.00;100645.13;4975163;28;45378;-77
2023/03/11 02:54:28;;;;;;;;;10.33;10.00;;;;;9.16;100.00;100653.50;4984153;28;45431;-77
2023/03/11 02:56:53;;;;;;;;;10.00;8.67;;;;;9.14;100.00;100658.22;4982195;28;45495;-77
2023/03/11 02:59:19;;;;;;;;;14.67;14.67;;;;;9.01;100.00;100649.50;4982369;28;45419;-77
2023/03/11 03:01:44;;;;;;;;;12.75;12.75;;;;;8.99;100.00;100649.63;4977956;28;45451;-77
2023/03/11 03:04:10;;;;;;;;;13.00;13.00;;;;;9.11;100.00;100666.66;4982404;28;45637;-77
2023/03/11 03:06:35;;;;;;;;;14.33;11.33;;;;;9.16;100.00;100666.22;4976991;28;47626;-77
2023/03/11 03:09:00;;;;;;;;;11.00;11.00;;;;;9.13;100.00;100655.66;4983005;28;45217;-77
2023/03/11 03:11:26;;;;;;;;;11.00;11.00;;;;;9.23;100.00;100660.09;4977072;28;45423;-77
2023/03/11 03:13:51;;;;;;;;;11.33;11.33;;;;;9.26;100.00;100673.38;5014977;28;45447;-77
2023/03/11 03:16:16;;;;;;;;;12.33;11.00;;;;;9.21;100.00;100656.66;4981999;28;45415;-77
2023/03/11 03:18:42;;;;;;;;;11.33;11.33;;;;;9.24;100.00;100652.81;4997709;28;45283;-77
2023/03/11 03:21:07;;;;;;;;;11.67;9.67;;;;;9.24;100.00;100666.38;4982597;28;45456;-77
2023/03/11 03:23:34;;;;;;;;;14.33;10.67;;;;;9.11;100.00;100647.69;4983548;28;45493;-77
2023/03/11 03:26:00;;;;;;;;;8.67;7.00;;;;;9.20;100.00;100657.69;4981964;28;46648;-77
2023/03/11 03:28:26;;;;;;;;;11.33;11.33;;;;;9.20;100.00;100652.25;4980969;28;45332;-77
2023/03/11 03:30:51;;;;;;;;;12.33;12.33;;;;;9.03;100.00;100611.44;4979803;28;45502;-77
2023/03/11 03:33:16;;;;;;;;;11.00;11.00;;;;;9.00;100.00;100639.66;4983310;28;45391;-78
2023/03/11 03:35:44;;;;;;;;;12.00;10.00;;;;;8.90;100.00;100619.84;4981310;28;45316;-77
2023/03/11 03:38:09;;;;;;;;;15.00;12.00;;;;;8.99;100.00;100636.09;4982744;28;45409;-77
2023/03/11 03:40:34;;;;;;;;;11.00;11.00;;;;;9.02;100.00;100655.78;5014223;28;45487;-77
2023/03/11 03:43:00;;;;;;;;;10.00;10.00;;;;;8.86;100.00;100618.41;4998160;28;45300;-77
2023/03/11 03:45:25;;;;;;;;;15.00;12.75;;;;;8.90;100.00;100633.38;4981660;28;46443;-77
2023/03/11 03:47:50;;;;;;;;;12.75;12.75;;;;;8.89;100.00;100628.97;4982425;28;45489;-77
2023/03/11 03:50:16;;;;;;;;;10.50;10.00;;;;;8.99;100.00;100652.34;4982087;28;45216;-77
2023/03/11 03:52:41;;;;;;;;;17.50;15.75;;;;;8.99;100.00;100637.94;4982820;28;45485;-77
2023/03/11 03:55:07;;;;;;;;;15.25;15.25;;;;;8.98;100.00;100649.81;4981997;28;47115;-77
2023/03/11 03:57:32;;;;;;;;;16.00;12.75;;;;;8.96;100.00;100652.66;4982458;28;45380;-77
2023/03/11 03:59:57;;;;;;;;;21.75;17.50;;;;;8.95;100.00;100663.63;4997512;28;45398;-77
2023/03/11 04:02:23;;;;;;;;;16.25;14.75;;;;;8.89;100.00;100664.19;4983647;28;45347;-77
2023/03/11 04:04:48;;;;;;;;;14.00;12.00;;;;;8.77;100.00;100668.84;5017411;28;46659;-77
2023/03/11 04:07:14;;;;;;;;;18.50;13.00;;;;;8.82;100.00;100650.34;4984217;28;45490;-77
2023/03/11 04:09:41;;;;;;;;;7.67;7.67;;;;;8.85;100.00;100668.16;4986053;28;45593;-77
2023/03/11 04:12:10;;;;;;;;;15.00;10.67;;;;;8.87;100.00;100675.16;4984485;28;45319;-77
2023/03/11 04:14:36;;;;;;;;;10.00;10.00;;;;;8.81;100.00;100666.72;4984265;28;47163;-77
2023/03/11 04:17:02;;;;;;;;;10.33;7.67;;;;;8.82;100.00;100665.75;4983634;28;45445;-77
2023/03/11 04:19:27;;;;;;;;;10.67;7.00;;;;;8.80;100.00;100656.88;5000684;28;45358;-77
2023/03/11 04:21:52;;;;;;;;;10.67;10.00;;;;;8.73;100.00;100656.59;4982725;28;45382;-77
2023/03/11 04:24:18;;;;;;;;;8.00;8.00;;;;;8.79;100.00;100668.72;4984626;28;45466;-76
2023/03/11 04:26:44;;;;;;;;;10.67;10.00;;;;;8.74;100.00;100646.63;4985231;28;45549;-76
2023/03/11 04:29:09;;;;;;;;;11.67;10.00;;;;;8.82;100.00;100650.34;5000762;28;45367;-76
2023/03/11 04:31:35;;;;;;;;;10.67;8.00;;;;;8.85;100.00;100654.59;4983924;28;45310;-76
2023/03/11 04:34:00;;;;;;;;;10.00;9.67;;;;;8.78;100.00;100675.13;5000073;28;48307;-76
2023/03/11 04:36:26;;;;;;;;;14.00;10.00;;;;;8.79;100.00;100676.84;4999957;28;45596;-77
2023/03/11 04:38:51;;;;;;;;;10.67;10.00;;;;;8.79;100.00;100682.25;4984539;28;45363;-76
2023/03/11 04:41:16;;;;;;;;;11.50;11.50;;;;;8.72;100.00;100663.00;4985449;28;45305;-76
2023/03/11 04:43:41;;;;;;;;;7.00;6.00;;;;;8.83;100.00;100681.88;5017327;28;46530;-77
2023/03/11 04:46:07;;;;;;;;;14.25;10.75;;;;;8.85;100.00;100685.25;4984770;28;45464;-76
2023/03/11 04:48:32;;;;;;;;;15.00;11.50;;;;;8.82;100.00;100693.69;4985157;28;45236;-77
2023/03/11 04:50:57;;;;;;;;;7.33;7.33;;;;;8.83;100.00;100689.13;4984920;28;45361;-76
2023/03/11 04:53:23;;;;;;;;;11.25;10.00;;;;;8.91;100.00;100692.00;4985154;28;45368;-79
2023/03/11 04:55:49;;;;;;;;;11.00;10.67;;;;;8.81;100.00;100681.13;4984686;28;45348;-76
2023/03/11 04:58:14;;;;;;;;;9.50;9.50;;;;;8.89;100.00;100694.00;4985197;28;45566;-77
2023/03/11 05:00:40;;;;;;;;;6.33;6.33;;;;;8.74;100.00;100689.94;4985011;28;45474;-77
2023/03/11 05:03:05;;;;;;;;;7.67;3.33;;;;;8.72;100.00;100703.63;4984585;28;46215;-77
2023/03/11 05:05:31;;;;;;;;;6.00;6.00;;;;;8.66;100.00;100697.91;4984483;28;45280;-77
2023/03/11 05:07:56;;;;;;;;;8.00;8.00;;;;;8.59;100.00;100679.50;4985066;28;45214;-77
2023/03/11 05:10:21;;;;;;;;;7.67;7.00;;;;;8.63;100.00;100682.78;4984952;28;45706;-77
2023/03/11 05:12:48;;;;;;;;;7.00;7.00;;;;;8.68;100.00;100698.63;4984739;28;46572;-77
2023/03/11 05:15:13;;;;;;;;;6.00;6.00;;;;;8.67;100.00;100696.91;4983627;28;46505;-77
2023/03/11 05:17:39;;;;;;;;;5.00;5.00;;;;;8.54;100.00;100695.31;4984415;28;45515;-77
2023/03/11 05:20:07;;;;;;;;;7.00;7.00;;;;;8.54;100.00;100710.69;4981992;28;45558;-77
2023/03/11 05:22:33;;;;;;;;;6.33;6.33;;;;;8.59;100.00;100717.41;4982388;28;46510;-77
2023/03/11 05:24:59;;;;;;;;;10.00;6.00;;;;;8.43;100.00;100700.81;4983030;28;45308;-77
2023/03/11 05:27:24;;;;;;;;;9.00;7.33;;;;;8.43;100.00;100702.66;4999698;28;45490;-78
2023/03/11 05:29:49;;;;;;;;;8.67;6.00;;;;;8.36;100.00;100691.53;4984141;28;45582;-77
2023/03/11 05:32:15;;;;;;;;;7.00;7.00;;;;;8.48;100.00;100706.66;4983569;28;45525;-78
2023/03/11 05:34:40;;;;;;;;;12.00;8.67;;;;;8.42;100.00;100701.78;4984960;28;45209;-77
2023/03/11 05:37:06;;;;;;;;;11.00;7.00;;;;;8.41;100.00;100704.63;4982624;28;45411;-77
2023/03/11 05:39:32;;;;;;;;;8.67;7.00;;;;;8.25;100.00;100715.94;4984885;28;45398;-77
2023/03/11 05:41:57;;;;;;;;;8.33;6.33;;;;;8.17;100.00;100716.63;4983808;28;46559;-77
2023/03/11 05:44:22;;;;;;;;;8.67;5.00;;;;;8.15;100.00;100717.72;4984481;28;45407;-77
2023/03/11 05:46:48;;;;;;;;;8.67;6.67;;;;;8.18;100.00;100733.72;4983414;28;45505;-77
2023/03/11 05:49:13;;;;;;;;;9.00;7.00;;;;;8.20;100.00;100734.41;4983740;28;45302;-79
2023/03/11 05:51:39;;;;;;;;;6.67;5.00;;;;;8.14;100.00;100735.81;4982697;28;45501;-78
2023/03/11 05:54:10;;;;;;;;;6.00;5.00;;;;;8.28;100.00;100750.00;4983061;28;45465;-77
2023/03/11 05:56:35;;;;;;;;;6.33;6.00;;;;;8.20;100.00;100727.16;4983663;28;45556;-77
2023/03/11 05:59:01;;;;;;;;;7.00;5.67;;;;;8.30;100.00;100738.06;4983288;28;45377;-78
2023/03/11 06:01:26;;;;;;;;;9.00;5.00;;;;;8.23;100.00;100723.34;4981081;28;48193;-76
2023/03/11 06:03:51;;;;;;;;;6.00;5.67;;;;;8.29;100.00;100739.03;4984125;28;45475;-79
2023/03/11 06:06:17;;;;;;;;;6.33;6.00;;;;;8.12;100.00;100702.59;4983543;28;45461;-77
2023/03/11 06:08:48;;;;;;;;;7.00;5.67;;;;;8.21;100.00;100728.88;4983099;28;45377;-78
2023/03/11 06:11:13;;;;;;;;;8.33;7.00;;;;;8.19;100.00;100743.53;4977883;28;46337;-76
2023/03/11 06:13:38;;;;;;;;;12.00;9.33;;;;;8.14;100.00;100738.53;4999018;28;45342;-77
2023/03/11 06:16:04;;;;;;;;;11.75;7.50;;;;;8.24;100.00;100751.25;4981712;28;45541;-77
2023/03/11 06:18:29;;;;;;;;;10.00;7.00;;;;;8.19;100.00;100732.69;4984464;28;45305;-75
2023/03/11 06:20:59;;;;;;;;;8.25;7.00;;;;;8.19;100.00;100730.84;4982866;28;45417;-76
2023/03/11 06:23:25;;;;;;;;;6.33;6.00;;;;;8.19;100.00;100738.09;4984018;28;45348;-74
2023/03/11 06:26:02;;;;;;;;;7.00;6.00;;;;;8.20;100.00;100737.97;4982806;28;45253;-74
2023/03/11 06:28:28;;;;;;;;;8.67;8.67;;;;;8.21;100.00;100726.16;4984010;28;45429;-75
2023/03/11 06:30:55;;;;;;;;;10.33;9.00;;;;;8.20;100.00;100719.03;4982972;28;45352;-76
2023/03/11 06:33:22;;;;;;;;;9.67;7.00;;;;;8.16;100.00;100717.59;4983380;28;45173;-75
2023/03/11 06:35:58;;;;;;;;;10.50;10.00;;;;;7.94;100.00;100722.31;5014553;28;45445;-75
2023/03/11 06:38:23;;;;;;;;;5.67;5.67;;;;;8.08;100.00;100751.72;4980006;28;45511;-77
2023/03/11 06:40:48;;;;;;;;;7.00;7.00;;;;;8.13;100.00;100746.75;4982792;28;45418;-74
2023/03/11 06:43:14;;;;;;;;;8.00;6.67;;;;;8.21;100.00;100744.25;4983082;28;56574;-76
2023/03/11 06:45:39;;;;;;;;;7.33;6.00;;;;;8.32;100.00;100751.50;4982872;28;45843;-76
2023/03/11 06:48:05;;;;;;;;;7.00;7.00;;;;;8.22;100.00;100748.69;4983614;28;45489;-76
2023/03/11 06:50:30;;;;;;;;;8.33;6.00;;;;;8.39;100.00;100739.13;4997405;28;47360;-74
2023/03/11 06:52:56;;;;;;;;;6.00;6.00;;;;;8.47;100.00;100742.88;4983148;28;45441;-74
2023/03/11 06:55:21;;;;;;;;;6.00;6.00;;;;;8.43;100.00;100748.69;4982718;28;45319;-75
2023/03/11 06:57:46;;;;;;;;;6.00;3.00;;;;;8.56;100.00;100758.28;4983473;28;45257;-75
2023/03/11 07:00:13;;;;;;;;;8.33;6.00;;;;;8.54;100.00;100757.59;4997728;28;46834;-75
2023/03/11 07:02:38;;;;;;;;;6.67;5.00;;;;;8.59;100.00;100754.47;4997988;28;45861;-76
2023/03/11 07:05:04;;;;;;;;;6.33;6.00;;;;;8.65;100.00;100763.91;4982552;28;45280;-75
2023/03/11 07:07:29;;;;;;;;;6.00;6.00;;;;;8.73;100.00;100772.19;4998637;28;45674;-75
2023/03/11 07:09:56;;;;;;;;;9.67;6.33;;;;;8.73;100.00;100792.03;4982571;28;45425;-74
2023/03/11 07:12:24;;;;;;;;;5.67;5.67;;;;;8.83;100.00;100781.25;4982606;28;45387;-75
2023/03/11 07:14:57;;;;;;;;;9.67;9.67;;;;;8.89;100.00;100786.09;4983180;28;45416;-76
2023/03/11 07:17:23;;;;;;;;;7.00;6.00;;;;;8.89;100.00;100796.94;4982693;28;45399;-75
2023/03/11 07:19:48;;;;;;;;;6.00;6.00;;;;;8.87;100.00;100788.09;4982083;28;46197;-75
2023/03/11 07:22:14;;;;;;;;;7.00;7.00;;;;;8.92;100.00;100789.38;5013636;28;45418;-74
2023/03/11 07:24:39;;;;;;;;;6.67;5.67;;;;;9.08;100.00;100796.16;4981912;28;45447;-75
2023/03/11 07:27:05;;;;;;;;;9.00;7.00;;;;;9.06;100.00;100798.97;4996816;28;45486;-75
2023/03/11 07:29:30;;;;;;;;;10.00;6.00;;;;;9.09;100.00;100798.72;4982836;28;45552;-76
2023/03/11 07:31:56;;;;;;;;;10.00;7.33;;;;;9.14;100.00;100798.31;4981980;28;45426;-76
2023/03/11 07:34:21;;;;;;;;;6.00;6.00;;;;;9.18;100.00;100789.78;4981943;28;45406;-77
2023/03/11 07:36:46;;;;;;;;;6.00;6.00;;;;;9.25;100.00;100784.66;4982722;28;45564;-75
2023/03/11 07:39:15;;;;;;;;;6.67;6.67;;;;;9.45;100.00;100809.94;4986288;28;45414;-75
2023/03/11 07:41:40;;;;;;;;;7.67;5.67;;;;;9.44;100.00;100810.94;4978431;28;45363;-75
2023/03/11 07:44:06;;;;;;;;;7.33;6.00;;;;;9.50;100.00;100830.22;4985844;28;45213;-75
2023/03/11 07:46:32;;;;;;;;;7.00;7.00;;;;;9.55;100.00;100821.69;4984303;28;45666;-75
2023/03/11 07:48:57;;;;;;;;;6.00;6.00;;;;;9.61;100.00;100831.97;4986014;28;46733;-74
2023/03/11 07:51:26;;;;;;;;;3.00;3.00;;;;;9.58;100.00;100811.38;4983351;28;45475;-76
2023/03/11 07:53:54;;;;;;;;;7.00;6.00;;;;;9.62;100.00;100818.28;4986049;28;45344;-76
2023/03/11 07:56:22;;;;;;;;;6.67;6.00;;;;;9.69;100.00;100795.00;4984269;28;45669;-75
2023/03/11 07:58:48;;;;;;;;;9.33;7.00;;;;;9.81;100.00;100800.28;4985717;28;46077;-75
2023/03/11 08:01:19;;;;;;;;;10.67;8.00;;;;;9.79;100.00;100802.31;4985181;28;45483;-76
2023/03/11 08:03:46;;;;;;;;;6.00;5.00;;;;;9.86;100.00;100798.88;5013528;28;45492;-76
2023/03/11 08:06:16;;;;;;;;;4.67;4.67;;;;;9.88;100.00;100826.72;4991101;28;45555;-75
2023/03/11 08:08:42;;;;;;;;;10.00;7.00;;;;;9.81;100.00;100839.13;5000724;28;48045;-76
2023/03/11 08:11:09;;;;;;;;;6.33;6.00;;;;;9.77;100.00;100833.13;4984962;28;45510;-75
2023/03/11 08:13:35;;;;;;;;;7.00;7.00;;;;;9.96;100.00;100840.44;4984320;28;45451;-75
2023/03/11 08:16:05;;;;;;;;;3.67;3.67;;;;;10.02;100.00;100841.69;4983652;28;45509;-76
2023/03/11 08:18:31;;;;;;;;;5.67;5.67;;;;;10.18;100.00;100852.03;4985087;28;45573;-75
2023/03/11 08:20:57;;;;;;;;;8.67;3.33;;;;;10.13;100.00;100853.31;4984855;28;45451;-75
2023/03/11 08:23:22;;;;;;;;;11.67;9.33;;;;;10.18;100.00;100835.75;4985458;28;45328;-76
2023/03/11 08:25:47;;;;;;;;;11.33;9.67;;;;;10.23;100.00;100833.47;4985140;28;45395;-75
2023/03/11 08:28:13;;;;;;;;;10.67;7.67;;;;;10.33;100.00;100818.88;5017142;28;47454;-76
2023/03/11 08:30:39;;;;;;;;;13.00;8.00;;;;;10.51;100.00;100816.28;4985776;28;46443;-75
2023/03/11 08:33:04;;;;;;;;;8.00;8.00;;;;;10.71;100.00;100823.38;4985377;28;45481;-75
2023/03/11 08:35:30;;;;;;;;;7.67;6.33;;;;;10.73;100.00;100821.38;4985248;28;45363;-75
2023/03/11 08:37:56;;;;;;;;;8.33;7.00;;;;;10.93;100.00;100812.13;4999173;28;47005;-75
2023/03/11 08:40:21;;;;;;;;;8.67;7.00;;;;;10.92;100.00;100815.84;4984525;28;45361;-76
2023/03/11 08:42:47;;;;;;;;;9.67;7.33;;;;;11.03;100.00;100803.09;4986564;28;45405;-76
2023/03/11 08:45:12;;;;;;;;;8.00;7.67;;;;;11.11;100.00;100808.59;4985003;28;45462;-77
2023/03/11 08:47:38;;;;;;;;;11.00;8.33;;;;;11.10;100.00;100812.34;4984514;28;46060;-76
2023/03/11 08:50:08;;;;;;;;;8.00;5.33;;;;;11.20;100.00;100818.59;5014629;28;45438;-75
2023/03/11 08:52:34;;;;;;;;;8.00;6.67;;;;;11.04;100.00;100829.25;4984960;28;45309;-76
2023/03/11 08:54:59;;;;;;;;;7.00;7.00;;;;;11.09;100.00;100826.94;4984798;28;45233;-76
2023/03/11 08:57:25;;;;;;;;;11.00;7.00;;;;;11.23;100.00;100829.19;4999307;28;46238;-77
2023/03/11 08:59:50;;;;;;;;;9.67;8.00;;;;;11.38;100.00;100819.50;4985247;28;45263;-77
2023/03/11 09:02:16;;;;;;;;;7.33;7.33;;;;;11.63;100.00;100831.50;4984187;28;45288;-77
2023/03/11 09:04:41;;;;;;;;;7.00;7.00;;;;;12.12;100.00;100822.03;4985632;28;45261;-76
2023/03/11 09:07:06;;;;;;;;;12.00;8.00;;;;;12.54;100.00;100832.22;4982044;28;50354;-75
2023/03/11 09:09:31;;;;;;;;;9.00;7.00;;;;;12.49;100.00;100825.38;4985304;28;45434;-76
2023/03/11 09:11:57;;;;;;;;;9.67;9.33;;;;;12.45;100.00;100817.69;4984096;28;45665;-76
2023/03/11 09:14:22;;;;;;;;;10.00;8.00;;;;;12.38;100.00;100812.00;4998596;28;45569;-76
2023/03/11 09:16:47;;;;;;;;;9.33;7.67;;;;;12.26;100.00;100812.44;4983188;28;46450;-77
2023/03/11 09:19:13;;;;;;;;;7.00;6.00;;;;;12.40;100.00;100826.34;5015899;28;45334;-77
2023/03/11 09:21:38;;;;;;;;;5.00;5.00;;;;;12.70;100.00;100826.91;4982683;28;45384;-77
2023/03/11 09:24:04;;;;;;;;;8.67;8.67;;;;;12.72;100.00;100827.56;4985341;28;45307;-77
2023/03/11 09:26:30;;;;;;;;;11.33;8.00;;;;;12.90;100.00;100828.38;4984050;28;45743;-77
2023/03/11 09:28:56;;;;;;;;;11.33;8.00;;;;;12.88;100.00;100833.13;4983415;28;45676;-77
2023/03/11 09:31:22;;;;;;;;;8.67;8.33;;;;;12.88;100.00;100830.41;4982469;28;45930;-77
2023/03/11 09:33:48;;;;;;;;;8.33;5.00;;;;;13.09;100.00;100828.13;4980692;28;45663;-79
2023/03/11 09:36:17;;;;;;;;;5.33;5.00;;;;;13.37;100.00;100826.06;4983479;28;46363;-80
2023/03/11 09:38:43;;;;;;;;;5.00;5.00;;;;;13.44;100.00;100832.59;4982971;28;45552;-77
2023/03/11 09:41:17;;;;;;;;;6.67;4.67;;;;;13.44;100.00;100821.66;4983923;28;45457;-78
2023/03/11 09:44:04;;;;;;;;;6.33;6.33;;;;;13.59;100.00;100821.88;4984967;28;45502;-78
2023/03/11 09:46:32;;;;;;;;;7.67;7.00;;;;;13.47;92.92;100831.41;5013797;28;46945;-77
2023/03/11 09:49:33;;;;;;;;;9.00;5.67;;;;;13.30;98.28;100818.72;5015693;28;45263;-78
2023/03/11 09:52:07;;;;;;;;;3.33;3.00;;;;;13.53;100.00;100839.78;4981758;28;45585;-77
2023/03/11 09:54:38;;;;;;;;;11.67;8.67;;;;;13.76;100.00;100834.56;4984510;28;45269;-77
2023/03/11 09:57:07;;;;;;;;;8.33;6.00;;;;;13.91;100.00;100821.97;4983310;28;45261;-77
2023/03/11 09:59:35;;;;;;;;;8.67;6.67;;;;;13.56;89.20;100831.28;4982015;28;46006;-77
2023/03/11 10:02:02;;;;;;;;;9.33;8.00;;;;;13.38;90.27;100833.25;4983194;28;45431;-77
2023/03/11 10:05:05;;;;;;;;;8.00;5.67;;;;;13.36;96.81;100846.22;4984198;28;45348;-76
2023/03/11 10:07:38;;;;;;;;;5.00;4.67;;;;;13.45;95.60;100837.03;4982561;28;45696;-76
2023/03/11 10:10:05;;;;;;;;;5.67;5.67;;;;;13.35;92.49;100838.19;4982002;28;46034;-76
2023/03/11 10:13:02;;;;;;;;;6.67;4.67;;;;;13.23;92.98;100846.66;4981080;28;45450;-76
2023/03/11 10:15:55;;;;;;;;;5.00;5.00;;;;;13.40;94.10;100852.19;4977500;28;45280;-77
2023/03/11 10:18:34;;;;;;;;;6.00;5.00;;;;;13.34;91.92;100856.44;4982912;28;45452;-77
2023/03/11 10:21:03;;;;;;;;;7.67;5.00;;;;;13.45;93.35;100860.72;4992860;28;45384;-76
2023/03/11 10:23:55;;;;;;;;;4.00;4.00;;;;;13.34;91.23;100859.16;4982111;28;45381;-76
2023/03/11 10:26:25;;;;;;;;;8.67;7.33;;;;;13.35;94.29;100854.56;4975312;28;45482;-78
2023/03/11 10:28:55;;;;;;;;;4.67;4.67;;;;;13.36;90.84;100857.13;4983087;28;46233;-78
2023/03/11 10:31:33;;;;;;;;;3.00;3.00;;;;;13.44;91.20;100848.13;4982794;28;45284;-76
2023/03/11 10:34:03;;;;;;;;;8.33;6.00;;;;;13.52;91.20;100845.41;5015058;28;45387;-76
2023/03/11 10:36:37;;;;;;;;;9.00;9.00;;;;;13.51;93.13;100843.72;4983252;28;45379;-78
2023/03/11 10:39:03;;;;;;;;;5.33;5.33;;;;;13.58;92.12;100845.63;4983196;28;46594;-76
2023/03/11 10:41:42;;;;;;;;;10.33;9.00;;;;;13.38;82.62;100843.31;4982801;28;45366;-77
2023/03/11 10:44:18;;;;;;;;;6.67;4.00;;;;;13.28;84.45;100839.88;4981694;28;45371;-77
2023/03/11 10:46:44;;;;;;;;;7.33;5.33;;;;;13.21;86.39;100835.06;4982809;28;45639;-77
2023/03/11 10:49:16;;;;;;;;;7.33;4.67;;;;;13.32;85.15;100846.69;4983244;28;45653;-76
2023/03/11 10:51:46;;;;;;;;;6.33;4.00;;;;;13.66;89.51;100855.72;4997426;28;45502;-77
2023/03/11 10:54:29;;;;;;;;;4.00;4.00;;;;;13.58;85.21;100863.88;4983212;28;46371;-78
2023/03/11 10:56:59;;;;;;;;;5.67;5.00;;;;;13.36;80.46;100843.50;4983458;28;45669;-76
2023/03/11 10:59:29;;;;;;;;;5.00;5.00;;;;;13.50;88.02;100850.19;4982648;28;46306;-77
2023/03/11 11:01:56;;;;;;;;;8.00;5.33;;;;;13.81;88.00;100843.09;4982475;28;45477;-77
2023/03/11 11:04:29;;;;;;;;;7.33;5.33;;;;;13.99;85.90;100835.66;4983450;28;45475;-77
2023/03/11 11:06:54;;;;;;;;;6.00;5.00;;;;;13.72;82.13;100835.09;4978930;28;45363;-77
2023/03/11 11:09:23;;;;;;;;;8.33;5.67;;;;;13.83;84.05;100842.94;4981312;28;46270;-77
2023/03/11 11:12:04;;;;;;;;;8.00;4.67;;;;;13.88;84.28;100844.16;4981339;28;45177;-77
2023/03/11 11:14:42;;;;;;;;;4.33;4.33;;;;;13.99;82.92;100827.44;4982789;28;45340;-77
2023/03/11 11:17:28;;;;;;;;;5.67;5.00;;;;;14.19;83.32;100827.97;4982290;28;45329;-78